Time;durP1;ratioP1;P1;durP2;ratioP2;P2;SDS_P1;SDS_P2;PMS_P1;PMS_P2;Temp;Humidity;BMP_temperature;BMP_pressure;BME280_temperature;BME280_humidity;BME280_pressure;Samples;Min_cycle;Max_cycle;Signal;HPM_P1;HPM_P2
2022/03/18 00:00:28;;;;;;;5.27;1.80;;;27.70;99.90;;;;;;4915044;29;20569;-67
2022/03/18 00:02:56;;;;;;;5.77;1.60;;;27.20;99.90;;;;;;4915184;29;20269;-67
2022/03/18 00:05:25;;;;;;;10.40;1.90;;;26.90;99.90;;;;;;4916562;29;20225;-67
2022/03/18 00:07:53;;;;;;;4.93;1.90;;;27.00;99.90;;;;;;4917261;29;20190;-67
2022/03/18 00:10:22;;;;;;;10.77;1.90;;;26.90;99.90;;;;;;4917234;29;20212;-68
2022/03/18 00:12:53;;;;;;;9.10;2.13;;;26.90;99.90;;;;;;4917151;29;20192;-67
2022/03/18 00:15:23;;;;;;;8.40;2.13;;;26.60;99.90;;;;;;4916961;29;20189;-68
2022/03/18 00:17:52;;;;;;;8.37;2.60;;;26.80;99.90;;;;;;4916276;29;20189;-67
2022/03/18 00:20:20;;;;;;;8.23;2.07;;;27.00;99.90;;;;;;4916121;29;20272;-68
2022/03/18 00:22:49;;;;;;;5.10;2.17;;;27.20;99.90;;;;;;4915300;29;20281;-68
2022/03/18 00:25:18;;;;;;;6.60;2.20;;;27.10;99.90;;;;;;4914931;29;20192;-67
2022/03/18 00:27:46;;;;;;;10.83;2.50;;;27.20;99.90;;;;;;4915289;29;20194;-68
2022/03/18 00:30:17;;;;;;;7.97;2.37;;;27.40;99.90;;;;;;4913515;29;20217;-68
2022/03/18 00:32:45;;;;;;;8.77;2.17;;;27.60;99.90;;;;;;4914315;29;20196;-68
2022/03/18 00:35:13;;;;;;;6.90;2.47;;;27.40;99.90;;;;;;4917519;29;20212;-66
2022/03/18 00:37:41;;;;;;;9.23;2.77;;;27.30;99.90;;;;;;4909119;29;20601;-66
2022/03/18 00:40:09;;;;;;;10.43;2.07;;;27.20;99.90;;;;;;4918783;29;20208;-67
2022/03/18 00:42:37;;;;;;;14.43;2.57;;;27.40;99.90;;;;;;4918577;29;20180;-67
2022/03/18 00:45:07;;;;;;;11.03;2.57;;;27.80;99.90;;;;;;4918041;29;20293;-67
2022/03/18 00:53:08;;;;;;;10.20;2.60;;;28.20;99.90;;;;;;4918240;29;20216;-66
2022/03/18 00:55:35;;;;;;;9.20;2.33;;;27.60;99.90;;;;;;4918463;29;20597;-67
2022/03/18 00:58:03;;;;;;;7.50;2.20;;;27.30;99.90;;;;;;4918299;29;20276;-66
2022/03/18 01:00:31;;;;;;;11.17;2.20;;;27.30;99.90;;;;;;4918091;29;20195;-67
2022/03/18 01:02:59;;;;;;;7.07;1.93;;;27.10;99.90;;;;;;4918607;29;20253;-66
2022/03/18 01:05:26;;;;;;;10.37;3.00;;;26.80;99.90;;;;;;4918563;29;20189;-67
2022/03/18 01:07:54;;;;;;;9.43;2.10;;;26.70;99.90;;;;;;4917908;29;20189;-66
2022/03/18 01:10:22;;;;;;;8.10;2.53;;;26.60;99.90;;;;;;4917914;29;20277;-66
2022/03/18 01:12:50;;;;;;;8.03;2.27;;;26.60;99.90;;;;;;4917536;29;20185;-67
2022/03/18 01:15:17;;;;;;;7.93;2.30;;;26.50;99.90;;;;;;4917721;29;20177;-67
2022/03/18 01:17:45;;;;;;;11.53;2.83;;;26.50;99.90;;;;;;4917703;29;20185;-67
2022/03/18 01:20:13;;;;;;;10.33;2.60;;;26.50;99.90;;;;;;4915379;29;20190;-67
2022/03/18 01:22:40;;;;;;;7.10;2.60;;;26.50;99.90;;;;;;4917780;29;20249;-68
2022/03/18 01:25:09;;;;;;;10.73;2.90;;;26.50;99.90;;;;;;4916470;29;20185;-66
2022/03/18 01:27:36;;;;;;;9.37;3.03;;;26.40;99.90;;;;;;4917467;29;20648;-68
2022/03/18 01:30:05;;;;;;;9.57;2.47;;;26.30;99.90;;;;;;4915809;29;20225;-67
2022/03/18 01:32:33;;;;;;;13.03;2.90;;;26.60;99.90;;;;;;4917277;29;20185;-68
2022/03/18 01:35:01;;;;;;;16.20;3.03;;;27.90;99.90;;;;;;4917306;29;20186;-68
2022/03/18 01:37:29;;;;;;;9.60;2.30;;;29.00;99.90;;;;;;4917784;29;20205;-68
2022/03/18 01:39:57;;;;;;;7.53;2.67;;;29.20;99.90;;;;;;4917595;29;20552;-68
2022/03/18 01:42:25;;;;;;;10.33;2.50;;;29.90;99.90;;;;;;4917595;29;20194;-67
2022/03/18 01:44:52;;;;;;;11.70;2.87;;;30.30;99.90;;;;;;4916749;29;20185;-68
2022/03/18 01:47:20;;;;;;;6.40;2.20;;;30.60;99.90;;;;;;4916172;29;20193;-68
2022/03/18 01:49:48;;;;;;;12.05;2.42;;;31.00;99.90;;;;;;4917414;29;20240;-68
2022/03/18 01:52:16;;;;;;;11.40;2.70;;;31.60;99.90;;;;;;4909564;29;20229;-69
2022/03/18 01:54:50;;;;;;;8.05;2.42;;;31.90;99.90;;;;;;4917119;29;20197;-69
2022/03/18 01:57:20;;;;;;;7.10;2.20;;;31.90;99.90;;;;;;4917210;29;20191;-68
2022/03/18 01:59:49;;;;;;;12.32;2.65;;;31.40;99.90;;;;;;4918363;29;20181;-67
2022/03/18 02:02:18;;;;;;;6.45;2.40;;;31.60;99.90;;;;;;4915609;29;20272;-67
2022/03/18 02:04:47;;;;;;;5.38;1.85;;;32.20;99.90;;;;;;4916882;29;20192;-67
2022/03/18 02:07:15;;;;;;;11.13;3.33;;;32.80;99.90;;;;;;4917427;29;20181;-68
2022/03/18 02:09:44;;;;;;;9.00;2.20;;;32.70;99.90;;;;;;4917027;29;20201;-67
2022/03/18 02:12:12;;;;;;;8.20;2.28;;;33.40;99.90;;;;;;4916460;29;20196;-68
2022/03/18 02:14:42;;;;;;;13.32;2.90;;;33.40;99.90;;;;;;4916239;29;20244;-68
2022/03/18 02:17:12;;;;;;;13.05;2.78;;;32.60;99.90;;;;;;4917114;29;20631;-67
2022/03/18 02:19:42;;;;;;;5.43;2.05;;;32.10;99.90;;;;;;4916737;29;20224;-67
2022/03/18 02:22:20;;;;;;;9.05;2.55;;;31.50;99.90;;;;;;4917152;29;20551;-67
2022/03/18 02:24:49;;;;;;;9.25;2.08;;;31.00;99.90;;;;;;4916599;29;20193;-67
2022/03/18 02:27:17;;;;;;;12.63;2.88;;;30.70;99.90;;;;;;4917106;29;20216;-67
2022/03/18 02:29:45;;;;;;;8.32;2.88;;;30.60;99.90;;;;;;4916956;29;20212;-67
2022/03/18 02:32:14;;;;;;;10.63;2.65;;;30.20;99.90;;;;;;4916751;29;20177;-67
2022/03/18 02:34:42;;;;;;;7.20;2.08;;;29.90;99.90;;;;;;4916683;29;20268;-67
2022/03/18 02:37:10;;;;;;;6.53;2.28;;;29.90;99.90;;;;;;4916595;29;20197;-67
2022/03/18 02:39:38;;;;;;;8.15;2.78;;;29.90;99.90;;;;;;4916789;29;20204;-68
2022/03/18 02:42:06;;;;;;;8.18;1.83;;;30.00;99.90;;;;;;4916588;29;20259;-67
2022/03/18 02:44:34;;;;;;;8.05;2.60;;;30.20;99.90;;;;;;4916448;29;20181;-66
2022/03/18 02:47:02;;;;;;;5.95;2.17;;;30.30;99.90;;;;;;4916575;29;20189;-67
2022/03/18 02:49:29;;;;;;;10.68;2.08;;;30.80;99.90;;;;;;4915262;29;20632;-67
2022/03/18 02:51:57;;;;;;;6.40;2.58;;;30.90;99.90;;;;;;4916458;29;20324;-67
2022/03/18 02:54:25;;;;;;;9.00;2.22;;;30.70;99.90;;;;;;4915994;29;20229;-68
2022/03/18 02:56:53;;;;;;;8.85;2.50;;;31.50;99.90;;;;;;4914959;29;20531;-69
2022/03/18 02:59:21;;;;;;;7.43;2.25;;;31.90;99.90;;;;;;4916401;29;20655;-66
2022/03/18 03:01:49;;;;;;;5.57;2.13;;;31.20;99.90;;;;;;4915962;29;20712;-66
2022/03/18 03:04:17;;;;;;;8.38;2.70;;;30.90;99.90;;;;;;4915108;29;20276;-69
2022/03/18 03:09:31;;;;;;;11.18;2.53;;;32.00;99.90;;;;;;4916157;29;20204;-67
2022/03/18 03:11:59;;;;;;;7.50;1.90;;;32.80;99.90;;;;;;4916079;29;20193;-68
2022/03/18 03:14:26;;;;;;;4.45;1.67;;;32.70;99.90;;;;;;4916044;29;20190;-67
2022/03/18 03:16:54;;;;;;;6.45;1.75;;;32.90;99.90;;;;;;4916440;29;20188;-68
2022/03/18 03:19:22;;;;;;;6.80;2.10;;;32.60;99.90;;;;;;4916197;29;20188;-65
2022/03/18 03:21:50;;;;;;;7.70;2.00;;;32.90;99.90;;;;;;4916169;29;20551;-66
2022/03/18 03:24:17;;;;;;;5.00;1.60;;;32.70;99.90;;;;;;4915632;29;20196;-66
2022/03/18 03:26:45;;;;;;;8.68;2.05;;;32.70;99.90;;;;;;4916019;29;20281;-67
2022/03/18 03:29:13;;;;;;;6.13;1.80;;;32.70;99.90;;;;;;4916005;29;20260;-66
2022/03/18 03:31:41;;;;;;;5.50;1.80;;;32.80;99.90;;;;;;4915856;29;20224;-68
2022/03/18 03:34:08;;;;;;;6.65;1.92;;;32.40;99.90;;;;;;4914407;29;20181;-67
2022/03/18 03:36:36;;;;;;;5.13;1.65;;;31.90;99.90;;;;;;4915614;29;20200;-68
2022/03/18 03:39:04;;;;;;;7.20;2.35;;;31.40;99.90;;;;;;4915816;29;20233;-66
2022/03/18 03:41:31;;;;;;;5.60;1.58;;;31.10;99.90;;;;;;4916011;29;20551;-67
2022/03/18 03:43:59;;;;;;;5.15;2.00;;;30.80;99.90;;;;;;4915921;29;20261;-67
2022/03/18 03:46:27;;;;;;;6.63;1.75;;;30.90;99.90;;;;;;4915800;29;20186;-68
2022/03/18 03:48:54;;;;;;;5.85;1.73;;;31.60;99.90;;;;;;4915840;29;20631;-68
2022/03/18 03:51:22;;;;;;;6.53;1.77;;;31.70;99.90;;;;;;4915665;29;20217;-68
2022/03/18 03:53:50;;;;;;;8.90;2.08;;;31.20;99.90;;;;;;4914413;29;20280;-68
2022/03/18 03:56:18;;;;;;;8.07;1.80;;;30.90;99.90;;;;;;4915870;29;20639;-66
2022/03/18 03:58:47;;;;;;;5.35;2.00;;;30.60;99.90;;;;;;4915690;29;20185;-69
2022/03/18 04:01:15;;;;;;;6.18;2.20;;;30.70;99.90;;;;;;4915142;29;20612;-68
2022/03/18 04:03:45;;;;;;;6.22;1.73;;;30.30;99.90;;;;;;4915868;29;20241;-68
2022/03/18 04:06:13;;;;;;;9.67;1.90;;;30.00;99.90;;;;;;4914435;29;20546;-68
2022/03/18 04:08:41;;;;;;;7.53;2.40;;;30.00;99.90;;;;;;4916635;29;20196;-67
2022/03/18 04:11:09;;;;;;;8.13;1.90;;;29.90;99.90;;;;;;4919337;29;20259;-67
2022/03/18 04:13:37;;;;;;;5.75;1.90;;;29.90;99.90;;;;;;4919164;29;20195;-67
2022/03/18 04:16:05;;;;;;;6.53;1.90;;;29.80;99.90;;;;;;4919384;29;20276;-66
2022/03/18 04:18:32;;;;;;;7.03;1.38;;;29.90;99.90;;;;;;4919204;29;20183;-67
2022/03/18 04:21:00;;;;;;;6.20;1.83;;;29.90;99.90;;;;;;4919217;29;20185;-67
2022/03/18 04:23:28;;;;;;;4.93;1.63;;;29.70;99.90;;;;;;4919321;29;20178;-66
2022/03/18 04:26:00;;;;;;;6.97;1.73;;;29.60;99.90;;;;;;4919447;29;20186;-68
2022/03/18 04:28:28;;;;;;;7.63;1.83;;;29.50;99.90;;;;;;4917375;29;20271;-68
2022/03/18 04:30:56;;;;;;;4.22;1.80;;;29.40;99.90;;;;;;4918784;29;20327;-66
2022/03/18 04:33:23;;;;;;;3.83;1.60;;;29.30;99.90;;;;;;4918980;29;20283;-66
2022/03/18 04:35:51;;;;;;;6.73;1.50;;;29.30;99.90;;;;;;4919087;29;20193;-67
2022/03/18 04:38:19;;;;;;;6.40;1.40;;;29.30;99.90;;;;;;4918643;29;20280;-67
2022/03/18 04:40:47;;;;;;;5.77;1.80;;;29.40;99.90;;;;;;4918962;29;20189;-67
2022/03/18 04:43:15;;;;;;;4.40;1.60;;;29.20;99.90;;;;;;4919077;29;20212;-66
2022/03/18 04:45:44;;;;;;;7.73;2.17;;;29.10;99.90;;;;;;4918839;29;20252;-67
2022/03/18 04:48:11;;;;;;;10.57;2.57;;;29.30;99.90;;;;;;4918595;29;20260;-66
2022/03/18 04:50:39;;;;;;;8.53;2.50;;;29.40;99.90;;;;;;4918048;29;20710;-65
2022/03/18 04:53:07;;;;;;;7.35;1.88;;;29.30;99.90;;;;;;4918546;29;20667;-67
2022/03/18 04:55:35;;;;;;;11.27;1.90;;;29.20;99.90;;;;;;4918485;29;20554;-66
2022/03/18 04:58:03;;;;;;;7.27;2.07;;;29.10;99.90;;;;;;4918416;29;20556;-66
2022/03/18 05:00:30;;;;;;;7.23;1.50;;;29.30;99.90;;;;;;4918117;29;20196;-67
2022/03/18 05:02:58;;;;;;;6.27;1.67;;;29.40;99.90;;;;;;4918036;29;20268;-65
2022/03/18 05:05:26;;;;;;;8.97;1.83;;;29.40;99.90;;;;;;4917691;29;20189;-67
2022/03/18 05:07:53;;;;;;;3.67;1.80;;;29.50;99.90;;;;;;4918405;29;20182;-68
2022/03/18 05:10:22;;;;;;;8.83;2.03;;;29.50;99.90;;;;;;4917696;29;20276;-67
2022/03/18 05:12:52;;;;;;;6.93;2.00;;;29.70;99.90;;;;;;4918213;29;20190;-66
2022/03/18 05:15:20;;;;;;;7.47;2.00;;;29.40;99.90;;;;;;4917757;29;20292;-67
2022/03/18 05:17:52;;;;;;;6.20;1.83;;;29.10;99.90;;;;;;4917685;29;20277;-65
2022/03/18 05:20:20;;;;;;;7.63;1.77;;;29.20;99.90;;;;;;4918583;29;20276;-66
2022/03/18 05:22:50;;;;;;;7.10;1.80;;;29.10;99.90;;;;;;4918040;29;20196;-67
2022/03/18 05:25:17;;;;;;;7.03;2.10;;;29.00;99.90;;;;;;4918021;29;20178;-67
2022/03/18 05:27:45;;;;;;;7.27;1.80;;;29.00;99.90;;;;;;4917837;29;20184;-66
2022/03/18 05:30:15;;;;;;;4.87;1.60;;;28.90;99.90;;;;;;4917237;29;20284;-67
2022/03/18 05:32:43;;;;;;;10.27;1.87;;;28.90;99.90;;;;;;4917882;29;20181;-67
2022/03/18 05:35:11;;;;;;;9.93;2.33;;;28.80;99.90;;;;;;4917724;29;20193;-65
2022/03/18 05:37:39;;;;;;;9.27;2.27;;;28.80;99.90;;;;;;4908854;29;20237;-66
2022/03/18 05:40:08;;;;;;;6.17;2.57;;;29.10;99.90;;;;;;4917820;29;20186;-68
2022/03/18 05:42:35;;;;;;;8.03;2.00;;;29.40;99.90;;;;;;4917046;29;20193;-67
2022/03/18 05:45:03;;;;;;;6.00;2.47;;;29.60;99.90;;;;;;4917569;29;20190;-67
2022/03/18 05:47:31;;;;;;;4.70;1.73;;;29.80;99.90;;;;;;4916935;29;20566;-68
2022/03/18 05:50:05;;;;;;;6.67;1.60;;;30.00;99.90;;;;;;4917217;29;20291;-68
2022/03/18 05:52:36;;;;;;;5.83;1.57;;;29.50;99.90;;;;;;4917337;29;20196;-67
2022/03/18 05:55:05;;;;;;;9.47;2.23;;;29.20;99.90;;;;;;4916436;29;20294;-68
2022/03/18 05:57:33;;;;;;;7.97;2.10;;;28.90;99.90;;;;;;4917580;29;20185;-67
2022/03/18 06:00:01;;;;;;;4.07;1.70;;;28.60;99.90;;;;;;4921075;29;20181;-67
2022/03/18 06:02:29;;;;;;;10.57;2.33;;;28.40;99.90;;;;;;4936195;29;20466;-67
2022/03/18 06:04:57;;;;;;;4.37;1.47;;;28.50;99.90;;;;;;4935248;29;20304;-67
2022/03/18 06:07:25;;;;;;;7.33;1.83;;;28.40;99.90;;;;;;4936460;29;20189;-66
2022/03/18 06:12:38;;;;;;;5.10;1.63;;;28.10;99.90;;;;;;4916062;29;20204;-67
2022/03/18 06:15:06;;;;;;;4.00;1.70;;;27.90;99.90;;;;;;4916271;29;20329;-67
2022/03/18 06:17:33;;;;;;;6.90;1.73;;;27.70;99.90;;;;;;4917103;29;20189;-66
2022/03/18 06:20:01;;;;;;;7.47;1.87;;;27.50;99.90;;;;;;4916982;29;20636;-66
2022/03/18 06:22:29;;;;;;;6.53;2.00;;;27.40;99.90;;;;;;4917135;29;20182;-66
2022/03/18 06:24:56;;;;;;;7.33;1.77;;;27.30;99.90;;;;;;4917063;29;20575;-65
2022/03/18 06:27:23;;;;;;;8.83;1.90;;;27.20;99.90;;;;;;4916998;29;20182;-66
2022/03/18 06:29:51;;;;;;;9.57;2.40;;;27.00;99.90;;;;;;4916798;29;20201;-68
2022/03/18 06:32:18;;;;;;;9.40;2.90;;;26.90;99.90;;;;;;4915602;29;20228;-65
2022/03/18 06:34:46;;;;;;;9.67;2.07;;;26.90;99.90;;;;;;4916631;29;20185;-66
2022/03/18 06:37:13;;;;;;;4.97;2.17;;;26.80;99.90;;;;;;4915576;29;20185;-65
2022/03/18 06:39:40;;;;;;;9.23;2.27;;;26.80;99.90;;;;;;4916908;29;20177;-66
2022/03/18 06:42:09;;;;;;;7.20;2.70;;;26.70;99.90;;;;;;4916320;29;20600;-67
2022/03/18 06:44:36;;;;;;;7.83;3.10;;;26.60;99.90;;;;;;4916440;29;20182;-66
2022/03/18 06:47:04;;;;;;;4.30;2.73;;;26.50;99.90;;;;;;4916789;29;20183;-66
2022/03/18 06:49:31;;;;;;;8.07;3.57;;;26.40;99.90;;;;;;4915298;29;20565;-65
2022/03/18 06:51:59;;;;;;;6.13;3.30;;;26.30;99.90;;;;;;4916489;29;20188;-65
2022/03/18 06:54:27;;;;;;;6.97;3.57;;;26.30;99.90;;;;;;4916407;29;20651;-66
2022/03/18 06:56:54;;;;;;;10.10;4.03;;;26.20;99.90;;;;;;4916238;29;20218;-66
2022/03/18 06:59:21;;;;;;;9.73;2.90;;;26.10;99.90;;;;;;4916488;29;20612;-66
2022/03/18 07:01:49;;;;;;;9.70;3.27;;;26.00;99.90;;;;;;4916044;29;20233;-66
2022/03/18 07:04:16;;;;;;;9.23;2.83;;;26.00;99.90;;;;;;4916226;29;20943;-66
2022/03/18 07:06:43;;;;;;;4.83;2.70;;;25.90;99.90;;;;;;4916169;29;20545;-65
2022/03/18 07:09:11;;;;;;;6.50;2.80;;;25.80;99.90;;;;;;4916161;29;20225;-67
2022/03/18 07:11:38;;;;;;;7.70;3.43;;;25.70;99.90;;;;;;4914775;29;20572;-67
2022/03/18 07:14:05;;;;;;;8.27;2.87;;;25.60;99.90;;;;;;4915849;29;20185;-66
2022/03/18 07:19:18;;;;;;;8.50;3.50;;;25.40;99.90;;;;;;4916219;29;20618;-66
2022/03/18 07:21:46;;;;;;;10.57;3.33;;;25.40;99.90;;;;;;4915918;29;20697;-66
2022/03/18 07:24:14;;;;;;;10.03;3.20;;;25.30;99.90;;;;;;4915785;29;20547;-65
2022/03/18 07:26:41;;;;;;;9.20;3.00;;;25.20;99.90;;;;;;4916129;29;20195;-66
2022/03/18 07:29:08;;;;;;;5.43;2.30;;;25.20;99.90;;;;;;4915806;29;20393;-66
2022/03/18 07:31:35;;;;;;;9.27;3.03;;;25.10;99.90;;;;;;4915898;29;20221;-66
2022/03/18 07:34:03;;;;;;;7.10;2.90;;;25.10;99.90;;;;;;4915419;29;20229;-65
2022/03/18 07:36:30;;;;;;;12.03;3.10;;;25.10;99.90;;;;;;4915839;29;20249;-65
2022/03/18 07:38:58;;;;;;;6.10;3.13;;;25.00;99.90;;;;;;4915638;29;20181;-65
2022/03/18 07:41:25;;;;;;;10.20;3.13;;;24.90;99.90;;;;;;4916049;29;20620;-66
2022/03/18 07:43:52;;;;;;;8.53;3.57;;;24.90;99.90;;;;;;4914547;29;20185;-66
2022/03/18 07:46:20;;;;;;;7.33;3.00;;;24.80;99.90;;;;;;4915830;29;20286;-68
2022/03/18 07:48:47;;;;;;;6.77;3.10;;;24.70;99.90;;;;;;4915607;29;20181;-67
2022/03/18 07:51:15;;;;;;;5.87;2.80;;;24.60;99.90;;;;;;4915689;29;20667;-66
2022/03/18 07:53:42;;;;;;;8.47;3.10;;;24.60;99.90;;;;;;4915452;29;20196;-64
2022/03/18 07:56:12;;;;;;;10.80;3.30;;;24.50;99.90;;;;;;4915841;29;20634;-66
2022/03/18 07:58:40;;;;;;;8.40;3.20;;;24.50;99.90;;;;;;4915687;29;20639;-65
2022/03/18 08:01:07;;;;;;;8.07;3.67;;;24.40;99.90;;;;;;4915450;29;20705;-68
2022/03/18 08:03:34;;;;;;;8.90;2.83;;;24.40;99.90;;;;;;4916440;29;20650;-67
2022/03/18 08:06:02;;;;;;;7.80;2.97;;;24.30;99.90;;;;;;4897692;29;20280;-68
2022/03/18 08:08:31;;;;;;;10.43;3.60;;;24.20;99.90;;;;;;4897865;29;20186;-66
2022/03/18 08:10:58;;;;;;;11.10;3.57;;;24.30;99.90;;;;;;4897761;29;20235;-68
2022/03/18 08:13:26;;;;;;;8.20;3.37;;;24.30;99.90;;;;;;4913596;29;20195;-66
2022/03/18 08:15:53;;;;;;;7.37;3.27;;;24.30;99.90;;;;;;4915027;29;20544;-68
2022/03/18 08:18:21;;;;;;;9.60;3.80;;;24.20;99.90;;;;;;4916558;29;20181;-67
2022/03/18 08:20:52;;;;;;;7.73;3.47;;;24.20;99.90;;;;;;4916126;29;20191;-67
2022/03/18 08:23:20;;;;;;;6.77;3.63;;;24.10;99.90;;;;;;4916371;29;20260;-68
2022/03/18 08:25:47;;;;;;;10.30;3.73;;;24.20;99.90;;;;;;4916651;29;20201;-68
2022/03/18 08:28:14;;;;;;;11.80;4.07;;;24.20;99.90;;;;;;4916508;29;20186;-68
2022/03/18 08:30:42;;;;;;;7.30;3.87;;;24.10;99.90;;;;;;4916312;29;20307;-67
2022/03/18 08:33:09;;;;;;;7.77;3.83;;;24.20;99.90;;;;;;4918228;29;20190;-67
2022/03/18 08:35:38;;;;;;;9.73;4.50;;;24.40;99.90;;;;;;4916624;29;20220;-67
2022/03/18 08:38:07;;;;;;;9.50;4.07;;;24.40;99.90;;;;;;4915433;29;20195;-68
2022/03/18 08:40:37;;;;;;;7.50;4.33;;;24.20;99.90;;;;;;4916700;29;20186;-68
2022/03/18 08:43:11;;;;;;;13.97;4.93;;;24.10;99.90;;;;;;4916632;29;20177;-68
2022/03/18 08:45:39;;;;;;;8.93;4.37;;;23.90;99.90;;;;;;4916597;29;20188;-68
2022/03/18 08:48:07;;;;;;;3.80;2.60;;;23.60;99.90;;;;;;4916644;29;20181;-68
2022/03/18 08:50:34;;;;;;;3.53;2.33;;;23.20;99.90;;;;;;4916338;29;20208;-68
2022/03/18 08:53:09;;;;;;;3.30;2.27;;;22.80;99.90;;;;;;4916507;29;20658;-68
2022/03/18 08:55:37;;;;;;;9.43;2.30;;;22.50;99.90;;;;;;4918945;29;20180;-69
2022/03/18 08:58:05;;;;;;;2.50;1.97;;;22.20;99.90;;;;;;4919955;29;20177;-69
2022/03/18 09:00:32;;;;;;;6.83;2.70;;;22.00;99.90;;;;;;4919623;29;20177;-68
2022/03/18 09:03:00;;;;;;;4.93;2.50;;;21.90;99.90;;;;;;4919518;29;20630;-68
2022/03/18 09:05:27;;;;;;;5.37;3.13;;;21.90;99.90;;;;;;4919443;29;20189;-68
2022/03/18 09:07:54;;;;;;;5.53;2.77;;;21.90;99.90;;;;;;4918080;29;20173;-68
2022/03/18 09:10:22;;;;;;;6.50;2.93;;;21.80;99.90;;;;;;4919164;29;20694;-69
2022/03/18 09:12:58;;;;;;;5.47;3.23;;;21.70;99.90;;;;;;4919098;29;20181;-69
2022/03/18 09:15:27;;;;;;;6.63;3.20;;;21.70;99.90;;;;;;4919697;29;20269;-69
2022/03/18 09:17:55;;;;;;;5.77;3.57;;;21.80;99.90;;;;;;4919583;29;20266;-69
2022/03/18 09:20:22;;;;;;;5.93;3.87;;;21.80;99.90;;;;;;4919164;29;20185;-68
2022/03/18 09:22:50;;;;;;;8.13;3.70;;;21.80;99.90;;;;;;4918794;29;20315;-69
2022/03/18 09:25:17;;;;;;;5.00;3.20;;;21.70;99.90;;;;;;4919012;29;20252;-69
2022/03/18 09:27:45;;;;;;;5.90;3.27;;;21.70;99.90;;;;;;4919590;29;20177;-69
2022/03/18 09:30:13;;;;;;;8.80;3.47;;;21.80;99.90;;;;;;4919211;29;20219;-70
2022/03/18 09:32:42;;;;;;;6.00;3.13;;;21.80;99.90;;;;;;4919239;29;20224;-69
2022/03/18 09:35:15;;;;;;;5.47;2.50;;;21.70;99.90;;;;;;4919225;29;20660;-68
2022/03/18 09:37:42;;;;;;;5.23;2.90;;;21.60;99.90;;;;;;4919237;29;20236;-69
2022/03/18 09:40:11;;;;;;;4.20;2.67;;;21.50;99.90;;;;;;4919205;29;20272;-69
2022/03/18 09:42:59;;;;;;;6.17;2.23;;;21.50;99.90;;;;;;4919408;29;20233;-68
2022/03/18 09:45:31;;;;;;;5.80;2.37;;;21.60;99.90;;;;;;4919350;29;20182;-70
2022/03/18 09:48:00;;;;;;;5.67;2.60;;;21.60;99.90;;;;;;4919178;29;20192;-69
2022/03/18 09:50:29;;;;;;;5.27;2.90;;;21.60;99.90;;;;;;4918925;29;20223;-69
2022/03/18 09:52:56;;;;;;;6.47;3.47;;;21.50;99.90;;;;;;4918783;29;20614;-69
2022/03/18 09:55:24;;;;;;;5.50;2.87;;;21.50;99.90;;;;;;4919049;29;20683;-70
2022/03/18 09:57:53;;;;;;;9.57;4.13;;;21.50;99.90;;;;;;4918886;29;20240;-69
2022/03/18 10:00:21;;;;;;;5.40;3.03;;;21.60;99.90;;;;;;4919086;29;20181;-69
2022/03/18 10:03:16;;;;;;;8.37;3.70;;;21.60;99.90;;;;;;4918625;29;20231;-69
2022/03/18 10:06:04;;;;;;;6.27;3.40;;;21.70;99.90;;;;;;4917972;29;20543;-69
2022/03/18 10:08:39;;;;;;;8.93;3.83;;;21.70;99.90;;;;;;4918053;29;20229;-69
2022/03/18 10:11:20;;;;;;;11.00;4.73;;;21.70;99.90;;;;;;4917141;29;20224;-68
2022/03/18 10:13:52;;;;;;;9.90;3.87;;;21.70;99.90;;;;;;4918442;29;20184;-69
2022/03/18 10:16:32;;;;;;;10.23;4.33;;;21.80;99.90;;;;;;4918219;29;20181;-69
2022/03/18 10:19:04;;;;;;;13.87;3.60;;;21.80;99.90;;;;;;4918398;29;20363;-68
2022/03/18 10:21:31;;;;;;;9.07;4.13;;;21.80;99.90;;;;;;4918415;29;20276;-69
2022/03/18 10:24:10;;;;;;;11.57;4.20;;;21.80;99.90;;;;;;4918171;29;20184;-69
2022/03/18 10:26:39;;;;;;;7.80;4.27;;;21.80;99.90;;;;;;4916681;29;20211;-69
2022/03/18 10:29:13;;;;;;;16.57;4.20;;;21.90;99.90;;;;;;4918192;29;20177;-68
2022/03/18 10:31:45;;;;;;;11.73;4.03;;;21.80;99.90;;;;;;4918267;29;20215;-68
2022/03/18 10:37:05;;;;;;;11.87;4.23;;;21.80;99.90;;;;;;4917050;29;20228;-69
2022/03/18 10:39:37;;;;;;;11.97;3.87;;;21.90;99.90;;;;;;4918058;29;20178;-68
2022/03/18 10:42:09;;;;;;;10.97;4.20;;;21.90;99.90;;;;;;4918190;29;20231;-69
2022/03/18 10:44:55;;;;;;;9.83;3.87;;;21.90;99.90;;;;;;4918138;29;20580;-68
2022/03/18 10:47:34;;;;;;;10.20;3.80;;;21.90;99.90;;;;;;4917685;29;20182;-69
2022/03/18 10:50:13;;;;;;;11.67;3.87;;;21.90;99.90;;;;;;4916504;29;20591;-68
2022/03/18 10:52:48;;;;;;;9.13;4.67;;;21.80;99.90;;;;;;4917964;29;20248;-68
2022/03/18 10:55:20;;;;;;;9.63;4.20;;;21.80;99.90;;;;;;4916242;29;20242;-68
2022/03/18 10:58:18;;;;;;;11.03;4.33;;;21.80;99.90;;;;;;4917555;29;20197;-68
2022/03/18 11:00:51;;;;;;;7.73;4.80;;;21.70;99.90;;;;;;4918042;29;20933;-69
2022/03/18 11:03:19;;;;;;;10.63;5.03;;;21.70;99.90;;;;;;4918075;29;20329;-68
2022/03/18 11:05:51;;;;;;;11.53;4.37;;;21.70;99.90;;;;;;4917544;29;20255;-69
2022/03/18 11:08:23;;;;;;;9.67;4.83;;;21.70;99.90;;;;;;4917053;29;20244;-69
2022/03/18 11:11:14;;;;;;;9.47;5.10;;;21.60;99.90;;;;;;4916385;29;20221;-69
2022/03/18 11:14:09;;;;;;;13.37;4.67;;;21.50;99.90;;;;;;4916543;29;20189;-68
2022/03/18 11:16:41;;;;;;;12.17;5.17;;;21.50;99.90;;;;;;4917863;29;20256;-68
2022/03/18 11:19:12;;;;;;;9.93;4.33;;;21.40;99.90;;;;;;4921001;29;20200;-69
2022/03/18 11:21:41;;;;;;;6.87;4.33;;;21.40;99.90;;;;;;4921473;29;20269;-69
2022/03/18 11:24:11;;;;;;;9.40;5.50;;;21.40;99.90;;;;;;4920459;29;20186;-68
2022/03/18 11:26:47;;;;;;;11.07;4.77;;;21.30;99.90;;;;;;4921428;29;20528;-68
2022/03/18 11:29:20;;;;;;;8.10;5.23;;;21.30;99.90;;;;;;4919388;29;20680;-69
2022/03/18 11:32:17;;;;;;;15.87;5.70;;;21.30;99.90;;;;;;4919457;29;20209;-69
2022/03/18 11:34:57;;;;;;;9.93;4.70;;;21.40;99.90;;;;;;4918570;29;20191;-68
2022/03/18 11:37:25;;;;;;;10.93;5.50;;;21.40;99.90;;;;;;4917128;29;20212;-68
2022/03/18 11:40:13;;;;;;;7.93;5.13;;;21.40;99.90;;;;;;4917168;29;20190;-68
2022/03/18 11:42:40;;;;;;;10.27;4.90;;;21.40;99.90;;;;;;4897464;29;20199;-69
2022/03/18 11:45:09;;;;;;;12.77;5.57;;;21.40;99.90;;;;;;4912577;29;20694;-68
2022/03/18 11:47:39;;;;;;;9.27;5.13;;;21.30;99.90;;;;;;4916816;29;20629;-68
2022/03/18 11:50:42;;;;;;;14.83;4.30;;;21.30;99.90;;;;;;4917036;29;20259;-68
2022/03/18 11:53:13;;;;;;;18.87;5.40;;;21.30;99.90;;;;;;4915362;29;20195;-69
2022/03/18 11:55:45;;;;;;;15.97;5.30;;;21.40;99.90;;;;;;4917164;29;20666;-69
2022/03/18 11:58:32;;;;;;;15.60;5.03;;;21.50;99.90;;;;;;4917111;29;20647;-69
2022/03/18 12:00:59;;;;;;;11.23;5.03;;;21.50;99.90;;;;;;4916570;29;20261;-68
2022/03/18 12:03:34;;;;;;;12.90;5.23;;;21.60;99.90;;;;;;4916937;29;20523;-68
2022/03/18 12:06:02;;;;;;;15.27;4.67;;;21.60;99.90;;;;;;4917140;29;20216;-69
2022/03/18 12:09:02;;;;;;;12.73;4.90;;;21.60;99.90;;;;;;4915638;29;20283;-68
2022/03/18 12:11:36;;;;;;;12.00;5.07;;;21.70;99.90;;;;;;4885793;29;20723;-68
2022/03/18 12:14:11;;;;;;;14.97;4.90;;;21.70;99.90;;;;;;4916695;29;20184;-68
2022/03/18 12:16:38;;;;;;;12.30;4.63;;;21.70;99.90;;;;;;4916917;29;20232;-67
2022/03/18 12:19:12;;;;;;;17.90;5.10;;;21.70;99.90;;;;;;4916850;29;20583;-68
2022/03/18 12:21:43;;;;;;;17.40;4.23;;;21.70;99.90;;;;;;4917092;29;20245;-68
2022/03/18 12:24:17;;;;;;;11.17;4.73;;;21.70;99.90;;;;;;4916874;29;20227;-68
2022/03/18 12:26:44;;;;;;;9.20;4.50;;;21.70;99.90;;;;;;4916879;29;20185;-68
2022/03/18 12:29:26;;;;;;;15.13;5.60;;;21.80;99.90;;;;;;4916996;29;20524;-68
2022/03/18 12:32:06;;;;;;;18.60;4.67;;;21.70;99.90;;;;;;4920485;29;20249;-68
2022/03/18 12:34:48;;;;;;;14.60;4.80;;;21.80;99.90;;;;;;4920609;29;20183;-69
2022/03/18 12:37:22;;;;;;;16.40;3.43;;;21.80;99.90;;;;;;4920549;29;20188;-68
2022/03/18 12:40:02;;;;;;;17.87;4.07;;;21.70;99.90;;;;;;4919541;29;20655;-67
2022/03/18 12:42:30;;;;;;;15.77;4.43;;;21.70;99.90;;;;;;4918606;29;20202;-68
2022/03/18 12:44:59;;;;;;;11.33;3.80;;;21.80;99.90;;;;;;4920134;29;20188;-68
2022/03/18 12:47:31;;;;;;;13.37;3.93;;;21.80;99.90;;;;;;4918402;29;20244;-68
2022/03/18 12:50:00;;;;;;;13.00;3.73;;;21.70;99.90;;;;;;4918563;29;20271;-67
2022/03/18 12:52:27;;;;;;;10.43;3.00;;;21.70;99.90;;;;;;4918978;29;20603;-68
2022/03/18 12:55:25;;;;;;;5.50;3.03;;;21.50;99.90;;;;;;4920261;29;20205;-68
2022/03/18 12:57:53;;;;;;;10.53;3.30;;;21.50;99.90;;;;;;4904000;29;20688;-68
2022/03/18 13:00:24;;;;;;;10.57;3.37;;;21.50;99.90;;;;;;4919944;29;20182;-68
2022/03/18 13:02:51;;;;;;;10.20;3.10;;;21.40;99.90;;;;;;4919008;29;20643;-68
2022/03/18 13:05:19;;;;;;;6.93;3.73;;;21.40;99.90;;;;;;4919853;29;20180;-68
2022/03/18 13:07:49;;;;;;;5.43;3.23;;;21.40;99.90;;;;;;4919941;29;20274;-68
2022/03/18 13:10:22;;;;;;;10.70;3.77;;;21.40;99.90;;;;;;4919069;29;20675;-68
2022/03/18 13:12:49;;;;;;;11.17;4.30;;;21.30;99.90;;;;;;4919653;29;20645;-69